createdAt,value
2023-01-21T00:04:47.683Z,103427.81
2023-01-21T00:09:51.552Z,103384.78
2023-01-21T00:14:58.289Z,103432.84
2023-01-21T00:20:07.074Z,103433.19
2023-01-21T00:25:11.064Z,103476.44
2023-01-21T00:30:17.668Z,103454.41
2023-01-21T00:35:21.895Z,103456.03
2023-01-21T00:40:28.113Z,103478.50
2023-01-21T00:45:33.831Z,103508.91
2023-01-21T00:50:39.439Z,103494.38
2023-01-21T00:55:44.057Z,103515.25
2023-01-21T01:00:48.850Z,103508.50
2023-01-21T01:05:52.535Z,103535.47
2023-01-21T01:10:58.069Z,103547.06
2023-01-21T01:16:06.290Z,103565.50
2023-01-21T01:21:14.382Z,103525.69
2023-01-21T01:26:22.799Z,103583.69
2023-01-21T01:31:27.693Z,103575.53
2023-01-21T01:36:32.850Z,103593.13
2023-01-21T01:41:37.968Z,103573.69
2023-01-21T01:46:41.771Z,103594.25
2023-01-21T01:52:00.735Z,103617.78
2023-01-21T01:57:11.136Z,103637.09
2023-01-21T02:02:19.620Z,103665.88
2023-01-21T02:07:28.131Z,103655.06
2023-01-21T02:12:34.328Z,103682.59
2023-01-21T02:17:55.804Z,103664.06
2023-01-21T02:23:11.307Z,103679.28
2023-01-21T02:28:43.691Z,103603.47
2023-01-21T02:34:13.673Z,103697.13
2023-01-21T02:39:50.299Z,103706.03
2023-01-21T02:45:27.985Z,103724.78
2023-01-21T02:50:45.692Z,103745.19
2023-01-21T02:55:49.426Z,103635.72
2023-01-21T03:01:19.442Z,103720.19
2023-01-21T03:07:09.248Z,103743.38
2023-01-21T03:12:45.077Z,103748.13
2023-01-21T03:18:09.541Z,103753.59
2023-01-21T03:23:22.408Z,103741.97
2023-01-21T03:28:34.149Z,103777.09
2023-01-21T03:33:46.609Z,103769.72
2023-01-21T03:38:59.518Z,103771.75
2023-01-21T03:44:04.533Z,103698.81
2023-01-21T03:49:56.932Z,103786.78
2023-01-21T03:55:02.262Z,103794.16
2023-01-21T04:00:08.155Z,103771.56
2023-01-21T04:05:12.002Z,103796.72
2023-01-21T04:10:18.525Z,103786.19
2023-01-21T04:15:22.417Z,103776.28
2023-01-21T04:20:49.736Z,103789.06
2023-01-21T04:25:53.734Z,103795.91
2023-01-21T04:30:59.283Z,103815.03
2023-01-21T04:36:03.846Z,103790.78
2023-01-21T04:41:08.467Z,103721.47
2023-01-21T04:46:13.921Z,103820.53
2023-01-21T04:51:17.746Z,103825.72
2023-01-21T04:56:21.579Z,103835.19
2023-01-21T05:01:27.730Z,103857.59
2023-01-21T05:06:31.582Z,103863.16
2023-01-21T05:11:36.981Z,103848.94
2023-01-21T05:16:40.858Z,103846.16
2023-01-21T05:21:44.937Z,103860.25
2023-01-21T05:26:52.459Z,103876.53
2023-01-21T05:31:57.855Z,103893.44
2023-01-21T05:37:01.660Z,103896.94
2023-01-21T05:42:05.885Z,103892.06
2023-01-21T05:47:09.675Z,103895.72
2023-01-21T05:52:17.398Z,103909.66
2023-01-21T05:57:21.210Z,103923.69
2023-01-21T06:02:25.658Z,103847.22
2023-01-21T06:07:29.550Z,103925.81
2023-01-21T06:12:33.545Z,103928.47
2023-01-21T06:17:39.345Z,103910.06
2023-01-21T06:22:43.165Z,103908.25
2023-01-21T06:27:48.227Z,103845.72
2023-01-21T06:32:52.862Z,103905.81
2023-01-21T06:37:58.001Z,103934.19
2023-01-21T06:43:01.816Z,103943.44
2023-01-21T06:48:07.098Z,103943.94
2023-01-21T06:53:10.606Z,103952.69
2023-01-21T06:58:16.699Z,103964.03
2023-01-21T07:03:22.956Z,103976.72
2023-01-21T07:08:26.887Z,103975.72
2023-01-21T07:13:30.584Z,103984.00
2023-01-21T07:18:37.725Z,103976.09
2023-01-21T07:23:41.737Z,103982.41
2023-01-21T07:28:47.606Z,103986.69
2023-01-21T07:33:52.548Z,104014.66
2023-01-21T07:38:58.628Z,104012.56
2023-01-21T07:44:03.158Z,103947.34
2023-01-21T07:49:09.473Z,104050.38
2023-01-21T07:54:15.303Z,104075.63
2023-01-21T07:59:19.959Z,104050.88
2023-01-21T08:04:23.830Z,104028.88
2023-01-21T08:09:35.569Z,104050.66
2023-01-21T08:14:39.635Z,104047.19
2023-01-21T08:19:48.466Z,104026.56
2023-01-21T08:24:54.875Z,104066.47
2023-01-21T08:29:58.866Z,104059.81
2023-01-21T08:35:03.483Z,104051.97
2023-01-21T08:40:11.277Z,104087.56
2023-01-21T08:45:18.777Z,104089.97
2023-01-21T08:50:26.260Z,104115.84
2023-01-21T08:55:32.524Z,104119.59
2023-01-21T09:00:38.969Z,104105.28
2023-01-21T09:05:44.369Z,104135.75
2023-01-21T09:11:04.918Z,104140.41
2023-01-21T09:16:11.877Z,104141.31
2023-01-21T09:21:17.270Z,104143.41
2023-01-21T09:26:23.730Z,104164.03
2023-01-21T09:31:32.940Z,104172.44
2023-01-21T09:36:37.916Z,104209.78
2023-01-21T09:41:50.777Z,104203.59
2023-01-21T09:47:10.671Z,104187.31
2023-01-21T09:52:33.797Z,104191.34
2023-01-21T09:57:51.550Z,104183.06
2023-01-21T10:03:16.027Z,104188.19
2023-01-21T10:08:50.042Z,104183.44
2023-01-21T10:14:17.618Z,104194.00
2023-01-21T10:19:33.240Z,104186.41
2023-01-21T10:24:46.969Z,104197.75
2023-01-21T10:29:58.728Z,104205.16
2023-01-21T10:35:19.503Z,104172.66
2023-01-21T10:40:45.359Z,104203.97
2023-01-21T10:46:13.621Z,104198.22
2023-01-21T10:51:46.833Z,104163.63
2023-01-21T10:57:03.328Z,104210.75
2023-01-21T11:02:10.757Z,104230.56
2023-01-21T11:07:20.636Z,104225.84
2023-01-21T11:12:25.459Z,104242.38
2023-01-21T11:17:35.344Z,104229.59
2023-01-21T11:22:46.229Z,104141.19
2023-01-21T11:27:50.015Z,104240.09
2023-01-21T11:32:54.668Z,104229.13
2023-01-21T11:38:01.347Z,104229.03
2023-01-21T11:43:05.076Z,104233.78
2023-01-21T11:48:23.761Z,104250.66
2023-01-21T11:53:27.857Z,104261.44
2023-01-21T11:58:35.542Z,104266.69
2023-01-21T12:03:54.859Z,104289.34
2023-01-21T12:09:09.769Z,104283.38
2023-01-21T12:14:36.556Z,104292.09
2023-01-21T12:20:08.132Z,104245.72
2023-01-21T12:25:33.439Z,104298.31
2023-01-21T12:31:03.434Z,104302.84
2023-01-21T12:36:38.503Z,104299.50
2023-01-21T12:41:48.402Z,104274.47
2023-01-21T12:46:59.598Z,104309.03
2023-01-21T12:52:13.507Z,104303.50
2023-01-21T12:57:50.934Z,104297.03
2023-01-21T13:03:10.997Z,104215.66
2023-01-21T13:08:41.477Z,104293.34
2023-01-21T13:14:09.320Z,104297.72
2023-01-21T13:19:18.027Z,104304.63
2023-01-21T13:24:55.481Z,104308.56
2023-01-21T13:30:22.311Z,104316.53
2023-01-21T13:35:34.654Z,104325.16
2023-01-21T13:41:15.136Z,104323.94
2023-01-21T13:46:38.614Z,104327.63
2023-01-21T13:52:04.740Z,104330.06
2023-01-21T13:57:20.439Z,104328.69
2023-01-21T14:02:36.866Z,104332.03
2023-01-21T14:07:47.243Z,104325.38
2023-01-21T14:13:25.746Z,104323.63
2023-01-21T14:18:34.804Z,104328.38
2023-01-21T14:23:54.866Z,104324.53
2023-01-21T14:29:16.801Z,104247.34
2023-01-21T14:34:52.773Z,104328.09
2023-01-21T14:40:30.425Z,104328.81
2023-01-21T14:46:24.869Z,104331.75
2023-01-21T14:51:32.731Z,104328.03
2023-01-21T14:56:40.952Z,104329.81
2023-01-21T15:01:49.221Z,104350.84
2023-01-21T15:07:19.094Z,104352.41
2023-01-21T15:12:31.406Z,104345.50
2023-01-21T15:17:54.833Z,104355.84
2023-01-21T15:23:32.580Z,104362.09
2023-01-21T15:28:57.520Z,104346.94
2023-01-21T15:34:08.009Z,104338.47
2023-01-21T15:39:23.968Z,104340.50
2023-01-21T15:44:47.122Z,104340.94
2023-01-21T15:50:02.858Z,104331.38
2023-01-21T15:55:46.646Z,104339.63
2023-01-21T16:01:03.144Z,104342.75
2023-01-21T16:06:36.684Z,104324.03
2023-01-21T16:11:49.393Z,104318.22
2023-01-21T16:17:23.972Z,104315.34
2023-01-21T16:22:37.415Z,104306.22
2023-01-21T16:27:49.446Z,104317.81
2023-01-21T16:33:12.446Z,104304.63
2023-01-21T16:38:28.289Z,104307.53
2023-01-21T16:43:32.603Z,104219.41
2023-01-21T16:48:39.638Z,104284.63
2023-01-21T16:53:49.978Z,104287.97
2023-01-21T16:58:53.896Z,104291.56
2023-01-21T17:04:01.966Z,104291.13
2023-01-21T17:09:09.314Z,104283.34
2023-01-21T17:14:25.819Z,104297.59
2023-01-21T17:19:39.541Z,104300.94
2023-01-21T17:25:29.975Z,104303.16
2023-01-21T17:30:36.489Z,104292.69
2023-01-21T17:36:10.881Z,104304.72
2023-01-21T17:41:25.669Z,104305.84
2023-01-21T17:46:32.955Z,104309.16
2023-01-21T17:51:38.902Z,104299.16
2023-01-21T17:56:49.471Z,104298.03
2023-01-21T18:01:54.168Z,104298.47
2023-01-21T18:07:01.138Z,104304.00
2023-01-21T18:12:05.174Z,104294.66
2023-01-21T18:17:24.747Z,104287.66
2023-01-21T18:22:31.262Z,104290.59
2023-01-21T18:27:37.634Z,104303.25
2023-01-21T18:32:42.794Z,104275.34
2023-01-21T18:37:49.417Z,104282.69
2023-01-21T18:42:56.613Z,104272.72
2023-01-21T18:48:00.706Z,104296.16
2023-01-21T18:53:07.076Z,104287.22
2023-01-21T18:58:15.370Z,104208.72
2023-01-21T19:03:19.532Z,104279.22
2023-01-21T19:08:29.403Z,104291.91
2023-01-21T19:13:34.787Z,104291.63
2023-01-21T19:18:39.860Z,104304.13
2023-01-21T19:23:43.655Z,104300.59
2023-01-21T19:28:50.901Z,104269.56
2023-01-21T19:33:56.533Z,104235.22
2023-01-21T19:39:05.540Z,104299.69
2023-01-21T19:44:09.558Z,104291.25
2023-01-21T19:49:16.519Z,104311.47
2023-01-21T19:54:21.983Z,104294.50
2023-01-21T19:59:25.710Z,104300.50
2023-01-21T20:04:30.463Z,104285.78
2023-01-21T20:09:34.233Z,104310.75
2023-01-21T20:14:39.007Z,104311.53
2023-01-21T20:19:44.320Z,104285.09
2023-01-21T20:24:48.988Z,104302.75
2023-01-21T20:30:02.791Z,104267.44
2023-01-21T20:35:20.555Z,104272.88
2023-01-21T20:40:30.910Z,104253.47
2023-01-21T20:45:42.737Z,104249.91
2023-01-21T20:50:46.903Z,104252.06
2023-01-21T20:55:53.033Z,104256.34
2023-01-21T21:00:58.967Z,104249.41
2023-01-21T21:06:17.731Z,104170.09
2023-01-21T21:11:23.368Z,104255.53
2023-01-21T21:16:33.311Z,104241.09
2023-01-21T21:21:37.294Z,104272.66
2023-01-21T21:26:41.635Z,104266.56
2023-01-21T21:31:46.064Z,104290.66
2023-01-21T21:36:54.451Z,104272.84
2023-01-21T21:42:20.468Z,104295.38
2023-01-21T21:47:47.011Z,104297.91
2023-01-21T21:52:52.926Z,104196.38
2023-01-21T21:57:56.619Z,104301.91
2023-01-21T22:03:03.241Z,104292.84
2023-01-21T22:08:08.676Z,104289.75
2023-01-21T22:13:13.150Z,104277.19
2023-01-21T22:18:20.698Z,104272.31
2023-01-21T22:23:26.725Z,104263.63
2023-01-21T22:28:30.754Z,104262.03
2023-01-21T22:33:40.108Z,104258.56
2023-01-21T22:38:45.923Z,104231.50
2023-01-21T22:43:51.376Z,104241.00
2023-01-21T22:48:55.967Z,104203.22
2023-01-21T22:54:02.712Z,104110.22
2023-01-21T22:59:06.468Z,104226.41
2023-01-21T23:04:10.849Z,104212.53
2023-01-21T23:09:16.701Z,104213.66
2023-01-21T23:14:23.127Z,104012.31
2023-01-21T23:19:27.433Z,104180.72
2023-01-21T23:24:32.977Z,104178.69
2023-01-21T23:29:41.414Z,104202.56
2023-01-21T23:34:48.403Z,104207.09
2023-01-21T23:39:56.986Z,104202.31
2023-01-21T23:45:04.036Z,104206.28
2023-01-21T23:50:11.959Z,104199.97
2023-01-21T23:55:15.775Z,104175.91
